AFL783 UUEE-UWSG
Flight info
| Callsign | AFL783 |
|---|---|
| Flight time | 1h 25m |
| Altitude | 41000 |
| Route | TOGMO3H TOGMO M56 PISAR T385 SOKUR SOKUR1G |
| Aircraft | A359/H-SDE2E3GHIJ3J4J5LM1ORWXY/LB1D1 |
Departure
| Time | 2026-04-26 19:42 |
|---|---|
| Airport | Sheremetyevo International Airport (UUEE) |
Arrival
| Time | 2026-04-26 21:07 |
|---|---|
| Airport | Gagarin International Airport (UWSG) |
| Time | Latitude | Longitude | Altitude | Speed | Heading |
|---|---|---|---|---|---|
| 2026-04-26 19:36 | 55.97728 | 37.42121 | 645 ft | 21 kts | 159° |
| 2026-04-26 19:36 | 55.97701 | 37.42150 | 645 ft | 2 kts | 141° |
| 2026-04-26 19:37 | 55.97698 | 37.42153 | 645 ft | 0 kts | 141° |
| 2026-04-26 19:38 | 55.97696 | 37.42161 | 645 ft | 4 kts | 123° |
| 2026-04-26 19:38 | 55.97700 | 37.42273 | 645 ft | 16 kts | 77° |
| 2026-04-26 19:38 | 55.97742 | 37.42566 | 645 ft | 32 kts | 75° |
| 2026-04-26 19:38 | 55.97799 | 37.42955 | 645 ft | 32 kts | 75° |
| 2026-04-26 19:39 | 55.97853 | 37.43325 | 645 ft | 30 kts | 75° |
| 2026-04-26 19:39 | 55.97905 | 37.43680 | 646 ft | 29 kts | 75° |
| 2026-04-26 19:39 | 55.97945 | 37.43985 | 645 ft | 12 kts | 97° |
| 2026-04-26 19:39 | 55.97940 | 37.43999 | 645 ft | 2 kts | 122° |
| 2026-04-26 19:40 | 55.97906 | 37.44036 | 645 ft | 10 kts | 158° |
| 2026-04-26 19:40 | 55.97899 | 37.44040 | 645 ft | 0 kts | 158° |
| 2026-04-26 19:40 | 55.97881 | 37.44052 | 646 ft | 7 kts | 160° |
| 2026-04-26 19:40 | 55.97807 | 37.44065 | 646 ft | 14 kts | 199° |
| 2026-04-26 19:41 | 55.97762 | 37.43947 | 647 ft | 2 kts | 252° |
| 2026-04-26 19:41 | 55.97762 | 37.43944 | 647 ft | 3 kts | 251° |
| 2026-04-26 19:41 | 55.97753 | 37.43898 | 647 ft | 24 kts | 251° |
| 2026-04-26 19:42 | 55.97495 | 37.42097 | 644 ft | 152 kts | 254° |
| 2026-04-26 19:42 | 55.97174 | 37.40183 | 1444 ft | 158 kts | 256° |
| 2026-04-26 19:42 | 55.96832 | 37.38110 | 2009 ft | 189 kts | 256° |
| 2026-04-26 19:42 | 55.96469 | 37.35734 | 2788 ft | 204 kts | 255° |
| 2026-04-26 19:43 | 55.96079 | 37.33220 | 3382 ft | 217 kts | 257° |
| 2026-04-26 19:43 | 55.95678 | 37.30559 | 4097 ft | 226 kts | 256° |
| 2026-04-26 19:43 | 55.95259 | 37.27812 | 4868 ft | 233 kts | 253° |
| 2026-04-26 19:43 | 55.94820 | 37.24992 | 5683 ft | 238 kts | 253° |
| 2026-04-26 19:44 | 55.94368 | 37.22129 | 6601 ft | 241 kts | 253° |
| 2026-04-26 19:44 | 55.93916 | 37.19259 | 7585 ft | 241 kts | 253° |
| 2026-04-26 19:44 | 55.93615 | 37.17350 | 8199 ft | 242 kts | 252° |
| 2026-04-26 19:44 | 55.93150 | 37.14398 | 9098 ft | 246 kts | 252° |
| 2026-04-26 19:45 | 55.92693 | 37.11499 | 9384 ft | 246 kts | 252° |
| 2026-04-26 19:45 | 55.92227 | 37.08556 | 9395 ft | 247 kts | 252° |
| 2026-04-26 19:45 | 55.91803 | 37.05578 | 9387 ft | 249 kts | 257° |
| 2026-04-26 19:45 | 55.91789 | 37.02478 | 9392 ft | 255 kts | 276° |
| 2026-04-26 19:46 | 55.92443 | 36.99520 | 9392 ft | 265 kts | 296° |
| 2026-04-26 19:46 | 55.93747 | 36.97101 | 9390 ft | 276 kts | 315° |
| 2026-04-26 19:46 | 55.95326 | 36.95133 | 9388 ft | 279 kts | 319° |
| 2026-04-26 19:46 | 55.96864 | 36.93294 | 9387 ft | 279 kts | 318° |
| 2026-04-26 19:47 | 55.98469 | 36.91355 | 9386 ft | 279 kts | 318° |
| 2026-04-26 19:47 | 55.99620 | 36.90180 | 9384 ft | 285 kts | 328° |
| 2026-04-26 19:47 | 56.02129 | 36.88540 | 9603 ft | 297 kts | 334° |
| 2026-04-26 19:47 | 56.04150 | 36.87352 | 10124 ft | 311 kts | 335° |
| 2026-04-26 19:48 | 56.06217 | 36.86138 | 11031 ft | 314 kts | 335° |
| 2026-04-26 19:48 | 56.08255 | 36.84732 | 11805 ft | 313 kts | 326° |
| 2026-04-26 19:48 | 56.10009 | 36.82496 | 12447 ft | 308 kts | 311° |
| 2026-04-26 19:48 | 56.11581 | 36.79877 | 13271 ft | 311 kts | 309° |
| 2026-04-26 19:49 | 56.13164 | 36.77194 | 14106 ft | 315 kts | 309° |
| 2026-04-26 19:49 | 56.14766 | 36.74487 | 14826 ft | 319 kts | 310° |
| 2026-04-26 19:49 | 56.16394 | 36.71751 | 15265 ft | 322 kts | 310° |
| 2026-04-26 19:49 | 56.18039 | 36.68992 | 15379 ft | 324 kts | 310° |
| 2026-04-26 19:50 | 56.19668 | 36.66256 | 15388 ft | 325 kts | 310° |
| 2026-04-26 19:50 | 56.21344 | 36.63440 | 15392 ft | 326 kts | 310° |
| 2026-04-26 19:50 | 56.22983 | 36.60688 | 15428 ft | 327 kts | 310° |
| 2026-04-26 19:50 | 56.24658 | 36.57858 | 15599 ft | 337 kts | 310° |
| 2026-04-26 19:51 | 56.26402 | 36.54894 | 15963 ft | 352 kts | 310° |
| 2026-04-26 19:51 | 56.28200 | 36.51847 | 16635 ft | 358 kts | 310° |
| 2026-04-26 19:51 | 56.29946 | 36.48638 | 17328 ft | 359 kts | 304° |
| 2026-04-26 19:51 | 56.31380 | 36.44997 | 18000 ft | 356 kts | 294° |
| 2026-04-26 19:52 | 56.32393 | 36.40950 | 18690 ft | 353 kts | 283° |
| 2026-04-26 19:52 | 56.32946 | 36.36669 | 19445 ft | 349 kts | 272° |
| 2026-04-26 19:52 | 56.33041 | 36.32332 | 20255 ft | 345 kts | 263° |
| 2026-04-26 19:52 | 56.32694 | 36.28085 | 21009 ft | 343 kts | 253° |
| 2026-04-26 19:53 | 56.31917 | 36.24012 | 21637 ft | 345 kts | 243° |
| 2026-04-26 19:53 | 56.30722 | 36.20267 | 22317 ft | 346 kts | 234° |
| 2026-04-26 19:53 | 56.29160 | 36.16969 | 22974 ft | 348 kts | 225° |
| 2026-04-26 19:53 | 56.27270 | 36.14240 | 23648 ft | 351 kts | 215° |
| 2026-04-26 19:54 | 56.25098 | 36.12167 | 24288 ft | 356 kts | 206° |
| 2026-04-26 19:54 | 56.22709 | 36.10862 | 24934 ft | 363 kts | 196° |
| 2026-04-26 19:54 | 56.20168 | 36.10406 | 25550 ft | 372 kts | 186° |
| 2026-04-26 19:54 | 56.17559 | 36.10885 | 26157 ft | 383 kts | 176° |
| 2026-04-26 19:55 | 56.14985 | 36.12352 | 26773 ft | 396 kts | 165° |
| 2026-04-26 19:55 | 56.12542 | 36.14855 | 27311 ft | 414 kts | 153° |
| 2026-04-26 19:55 | 56.10375 | 36.18420 | 27819 ft | 434 kts | 140° |
| 2026-04-26 19:55 | 56.08643 | 36.23005 | 28299 ft | 457 kts | 127° |
| 2026-04-26 19:56 | 56.07413 | 36.28350 | 28749 ft | 471 kts | 118° |
| 2026-04-26 19:56 | 56.06332 | 36.33910 | 29232 ft | 474 kts | 118° |
| 2026-04-26 19:56 | 56.05239 | 36.39494 | 29662 ft | 477 kts | 119° |
| 2026-04-26 19:56 | 56.04122 | 36.45098 | 30066 ft | 481 kts | 120° |
| 2026-04-26 19:57 | 56.02983 | 36.50739 | 30483 ft | 484 kts | 120° |
| 2026-04-26 19:57 | 56.01829 | 36.56408 | 30856 ft | 487 kts | 119° |
| 2026-04-26 19:57 | 56.00660 | 36.62122 | 31261 ft | 490 kts | 119° |
| 2026-04-26 19:57 | 55.99481 | 36.67858 | 31613 ft | 494 kts | 118° |
| 2026-04-26 19:58 | 55.98292 | 36.73630 | 31981 ft | 497 kts | 118° |
| 2026-04-26 19:58 | 55.97094 | 36.79429 | 32340 ft | 499 kts | 118° |
| 2026-04-26 19:58 | 55.95885 | 36.85262 | 32691 ft | 501 kts | 118° |
| 2026-04-26 19:58 | 55.94670 | 36.91107 | 33013 ft | 504 kts | 117° |
| 2026-04-26 19:59 | 55.93444 | 36.96973 | 33329 ft | 506 kts | 117° |
| 2026-04-26 19:59 | 55.91976 | 37.02629 | 33596 ft | 498 kts | 129° |
| 2026-04-26 19:59 | 55.89876 | 37.07390 | 33911 ft | 483 kts | 142° |
| 2026-04-26 19:59 | 55.87434 | 37.11470 | 34281 ft | 478 kts | 146° |
| 2026-04-26 20:00 | 55.84889 | 37.15247 | 34679 ft | 475 kts | 148° |
| 2026-04-26 20:00 | 55.82302 | 37.18896 | 35060 ft | 474 kts | 149° |
| 2026-04-26 20:00 | 55.79716 | 37.22502 | 35394 ft | 474 kts | 148° |
| 2026-04-26 20:00 | 55.77119 | 37.26144 | 35712 ft | 475 kts | 148° |
| 2026-04-26 20:01 | 55.74547 | 37.29798 | 36069 ft | 474 kts | 147° |
| 2026-04-26 20:01 | 55.71980 | 37.33482 | 36386 ft | 474 kts | 147° |
| 2026-04-26 20:01 | 55.69428 | 37.37166 | 36701 ft | 474 kts | 146° |
| 2026-04-26 20:01 | 55.66871 | 37.40865 | 36956 ft | 475 kts | 146° |
| 2026-04-26 20:02 | 55.64310 | 37.44568 | 37222 ft | 475 kts | 146° |
| 2026-04-26 20:02 | 55.61782 | 37.48217 | 37505 ft | 475 kts | 146° |
| 2026-04-26 20:02 | 55.59220 | 37.51909 | 37782 ft | 475 kts | 146° |
| 2026-04-26 20:02 | 55.57491 | 37.54396 | 37946 ft | 475 kts | 146° |
| 2026-04-26 20:03 | 55.54087 | 37.59283 | 38188 ft | 478 kts | 146° |
| 2026-04-26 20:03 | 55.51500 | 37.62986 | 38437 ft | 478 kts | 146° |
| 2026-04-26 20:03 | 55.48920 | 37.66672 | 38692 ft | 477 kts | 146° |
| 2026-04-26 20:03 | 55.46342 | 37.70348 | 38945 ft | 477 kts | 146° |
| 2026-04-26 20:04 | 55.43761 | 37.74023 | 39199 ft | 477 kts | 146° |
| 2026-04-26 20:04 | 55.41185 | 37.77683 | 39406 ft | 477 kts | 146° |
| 2026-04-26 20:04 | 55.38604 | 37.81346 | 39616 ft | 477 kts | 146° |
| 2026-04-26 20:04 | 55.36018 | 37.85008 | 39832 ft | 477 kts | 146° |
| 2026-04-26 20:05 | 55.33436 | 37.88659 | 40023 ft | 477 kts | 146° |
| 2026-04-26 20:05 | 55.30852 | 37.92308 | 40223 ft | 477 kts | 145° |
| 2026-04-26 20:05 | 55.28263 | 37.95955 | 40365 ft | 478 kts | 146° |
| 2026-04-26 20:05 | 55.25663 | 37.99611 | 40393 ft | 481 kts | 145° |
| 2026-04-26 20:06 | 55.20437 | 38.06943 | 40383 ft | 481 kts | 145° |
| 2026-04-26 20:06 | 55.15211 | 38.14253 | 40391 ft | 481 kts | 145° |
| 2026-04-26 20:07 | 55.09983 | 38.21539 | 40389 ft | 481 kts | 146° |
| 2026-04-26 20:07 | 55.04752 | 38.28802 | 40391 ft | 481 kts | 146° |
| 2026-04-26 20:08 | 54.99513 | 38.36052 | 40387 ft | 481 kts | 146° |
| 2026-04-26 20:08 | 54.94277 | 38.43272 | 40383 ft | 481 kts | 146° |
| 2026-04-26 20:09 | 54.89024 | 38.50492 | 40383 ft | 481 kts | 146° |
| 2026-04-26 20:09 | 54.83779 | 38.57676 | 40383 ft | 480 kts | 146° |
| 2026-04-26 20:10 | 54.78526 | 38.64845 | 40384 ft | 480 kts | 146° |
| 2026-04-26 20:10 | 54.73275 | 38.71989 | 40391 ft | 480 kts | 146° |
| 2026-04-26 20:11 | 54.68011 | 38.79125 | 40384 ft | 480 kts | 146° |
| 2026-04-26 20:12 | 54.60113 | 38.89787 | 40386 ft | 480 kts | 146° |
| 2026-04-26 20:12 | 54.54848 | 38.96865 | 40384 ft | 480 kts | 146° |
| 2026-04-26 20:13 | 54.49576 | 39.03933 | 40363 ft | 481 kts | 147° |
| 2026-04-26 20:13 | 54.44321 | 39.10950 | 40359 ft | 482 kts | 147° |
| 2026-04-26 20:14 | 54.39017 | 39.18006 | 40359 ft | 482 kts | 147° |
| 2026-04-26 20:14 | 54.34113 | 39.25942 | 40357 ft | 491 kts | 133° |
| 2026-04-26 20:15 | 54.30662 | 39.36138 | 40358 ft | 500 kts | 118° |
| 2026-04-26 20:15 | 54.27947 | 39.47140 | 40359 ft | 502 kts | 116° |
| 2026-04-26 20:16 | 54.25320 | 39.58215 | 40360 ft | 502 kts | 116° |
| 2026-04-26 20:16 | 54.22652 | 39.69244 | 40359 ft | 502 kts | 116° |
| 2026-04-26 20:17 | 54.19943 | 39.80241 | 40359 ft | 502 kts | 117° |
| 2026-04-26 20:17 | 54.17214 | 39.91215 | 40358 ft | 502 kts | 117° |
| 2026-04-26 20:18 | 54.14476 | 40.02175 | 40360 ft | 502 kts | 117° |
| 2026-04-26 20:18 | 54.11821 | 40.13175 | 40359 ft | 504 kts | 111° |
| 2026-04-26 20:19 | 54.09725 | 40.24593 | 40359 ft | 505 kts | 110° |
| 2026-04-26 20:19 | 54.07748 | 40.36004 | 40359 ft | 505 kts | 110° |
| 2026-04-26 20:20 | 54.05763 | 40.47481 | 40359 ft | 505 kts | 110° |
| 2026-04-26 20:20 | 54.03744 | 40.59016 | 40359 ft | 505 kts | 110° |
| 2026-04-26 20:21 | 54.01732 | 40.70390 | 40359 ft | 505 kts | 110° |
| 2026-04-26 20:21 | 53.99694 | 40.81828 | 40360 ft | 505 kts | 110° |
| 2026-04-26 20:22 | 53.97646 | 40.93249 | 40360 ft | 505 kts | 110° |
| 2026-04-26 20:22 | 53.95588 | 41.04658 | 40360 ft | 505 kts | 111° |
| 2026-04-26 20:23 | 53.93643 | 41.16135 | 40385 ft | 508 kts | 108° |
| 2026-04-26 20:23 | 53.91783 | 41.27711 | 40391 ft | 509 kts | 108° |
| 2026-04-26 20:24 | 53.89901 | 41.39280 | 40385 ft | 509 kts | 108° |
| 2026-04-26 20:24 | 53.87985 | 41.50823 | 40388 ft | 508 kts | 108° |
| 2026-04-26 20:25 | 53.86049 | 41.62353 | 40385 ft | 508 kts | 109° |
| 2026-04-26 20:25 | 53.84103 | 41.73860 | 40386 ft | 508 kts | 109° |
| 2026-04-26 20:26 | 53.82149 | 41.85356 | 40386 ft | 508 kts | 109° |
| 2026-04-26 20:26 | 53.80172 | 41.96823 | 40384 ft | 508 kts | 109° |
| 2026-04-26 20:27 | 53.78181 | 42.08300 | 40387 ft | 508 kts | 109° |
| 2026-04-26 20:27 | 53.76185 | 42.19752 | 40391 ft | 508 kts | 109° |
| 2026-04-26 20:28 | 53.74179 | 42.31197 | 40388 ft | 508 kts | 109° |
| 2026-04-26 20:28 | 53.72161 | 42.42631 | 40386 ft | 508 kts | 109° |
| 2026-04-26 20:29 | 53.70132 | 42.54058 | 40386 ft | 508 kts | 109° |
| 2026-04-26 20:29 | 53.68107 | 42.65393 | 40385 ft | 508 kts | 109° |
| 2026-04-26 20:30 | 53.66150 | 42.76858 | 40384 ft | 509 kts | 107° |
| 2026-04-26 20:30 | 53.64379 | 42.88418 | 40391 ft | 509 kts | 107° |
| 2026-04-26 20:31 | 53.62909 | 42.98013 | 40384 ft | 509 kts | 107° |
| 2026-04-26 20:31 | 53.61096 | 43.09544 | 40383 ft | 509 kts | 108° |
| 2026-04-26 20:32 | 53.59253 | 43.21051 | 40381 ft | 509 kts | 108° |
| 2026-04-26 20:32 | 53.57394 | 43.32549 | 40387 ft | 509 kts | 108° |
| 2026-04-26 20:33 | 53.55527 | 43.44025 | 40575 ft | 509 kts | 108° |
| 2026-04-26 20:33 | 53.53645 | 43.55522 | 40606 ft | 509 kts | 108° |
| 2026-04-26 20:34 | 53.51760 | 43.66977 | 40605 ft | 508 kts | 108° |
| 2026-04-26 20:34 | 53.49862 | 43.78416 | 40611 ft | 508 kts | 108° |
| 2026-04-26 20:35 | 53.47102 | 43.89211 | 40609 ft | 500 kts | 126° |
| 2026-04-26 20:35 | 53.42944 | 43.98481 | 40608 ft | 497 kts | 133° |
| 2026-04-26 20:36 | 53.38515 | 44.07353 | 40606 ft | 497 kts | 134° |
| 2026-04-26 20:36 | 53.34047 | 44.16186 | 40609 ft | 497 kts | 134° |
| 2026-04-26 20:37 | 53.29639 | 44.24951 | 40324 ft | 493 kts | 134° |
| 2026-04-26 20:37 | 53.27414 | 44.29389 | 39842 ft | 490 kts | 134° |
| 2026-04-26 20:37 | 53.25261 | 44.33682 | 39380 ft | 487 kts | 134° |
| 2026-04-26 20:37 | 53.23093 | 44.37998 | 38835 ft | 485 kts | 134° |
| 2026-04-26 20:38 | 53.20923 | 44.42308 | 38225 ft | 485 kts | 134° |
| 2026-04-26 20:38 | 53.18751 | 44.46613 | 37618 ft | 486 kts | 134° |
| 2026-04-26 20:38 | 53.16575 | 44.50921 | 37011 ft | 486 kts | 134° |
| 2026-04-26 20:38 | 53.14398 | 44.55222 | 36388 ft | 485 kts | 134° |
| 2026-04-26 20:39 | 53.12218 | 44.59519 | 35736 ft | 486 kts | 134° |
| 2026-04-26 20:39 | 53.10029 | 44.63826 | 35057 ft | 487 kts | 134° |
| 2026-04-26 20:39 | 53.07832 | 44.68142 | 34337 ft | 489 kts | 134° |
| 2026-04-26 20:39 | 53.05629 | 44.72463 | 33587 ft | 491 kts | 134° |
| 2026-04-26 20:40 | 53.03410 | 44.76808 | 32835 ft | 493 kts | 134° |
| 2026-04-26 20:40 | 53.01186 | 44.81156 | 32081 ft | 495 kts | 135° |
| 2026-04-26 20:40 | 52.98957 | 44.85510 | 31375 ft | 495 kts | 135° |
| 2026-04-26 20:40 | 52.96735 | 44.89843 | 30777 ft | 492 kts | 135° |
| 2026-04-26 20:41 | 52.94506 | 44.94138 | 30187 ft | 488 kts | 137° |
| 2026-04-26 20:41 | 52.92020 | 44.97843 | 29642 ft | 475 kts | 150° |
| 2026-04-26 20:41 | 52.89249 | 45.00712 | 29117 ft | 465 kts | 156° |
| 2026-04-26 20:41 | 52.86438 | 45.03286 | 28597 ft | 460 kts | 158° |
| 2026-04-26 20:42 | 52.83618 | 45.05720 | 28085 ft | 454 kts | 159° |
| 2026-04-26 20:42 | 52.80809 | 45.08076 | 27583 ft | 450 kts | 159° |
| 2026-04-26 20:42 | 52.78027 | 45.10393 | 27070 ft | 445 kts | 159° |
| 2026-04-26 20:42 | 52.75276 | 45.12688 | 26550 ft | 442 kts | 159° |
| 2026-04-26 20:43 | 52.72530 | 45.14982 | 25795 ft | 444 kts | 158° |
| 2026-04-26 20:43 | 52.69798 | 45.17289 | 24993 ft | 448 kts | 157° |
| 2026-04-26 20:43 | 52.67002 | 45.19686 | 24475 ft | 445 kts | 156° |
| 2026-04-26 20:43 | 52.64318 | 45.22000 | 24021 ft | 439 kts | 156° |
| 2026-04-26 20:44 | 52.61624 | 45.24325 | 23488 ft | 436 kts | 156° |
| 2026-04-26 20:44 | 52.58946 | 45.26630 | 22959 ft | 432 kts | 156° |
| 2026-04-26 20:44 | 52.56290 | 45.28909 | 22459 ft | 428 kts | 156° |
| 2026-04-26 20:44 | 52.53664 | 45.31155 | 21939 ft | 424 kts | 157° |
| 2026-04-26 20:45 | 52.51051 | 45.33384 | 21412 ft | 420 kts | 157° |
| 2026-04-26 20:45 | 52.48472 | 45.35579 | 20896 ft | 417 kts | 157° |
| 2026-04-26 20:45 | 52.45909 | 45.37757 | 20364 ft | 413 kts | 157° |
| 2026-04-26 20:45 | 52.43370 | 45.39912 | 19849 ft | 409 kts | 157° |
| 2026-04-26 20:46 | 52.40851 | 45.42047 | 19311 ft | 406 kts | 157° |
| 2026-04-26 20:46 | 52.38359 | 45.44156 | 18806 ft | 402 kts | 157° |
| 2026-04-26 20:46 | 52.35884 | 45.46255 | 18278 ft | 398 kts | 157° |
| 2026-04-26 20:46 | 52.33431 | 45.48322 | 17763 ft | 395 kts | 157° |
| 2026-04-26 20:47 | 52.31000 | 45.50362 | 17258 ft | 391 kts | 157° |
| 2026-04-26 20:47 | 52.29404 | 45.51699 | 16915 ft | 388 kts | 157° |
| 2026-04-26 20:47 | 52.26203 | 45.54377 | 16205 ft | 384 kts | 157° |
| 2026-04-26 20:47 | 52.23837 | 45.56355 | 15697 ft | 380 kts | 157° |
| 2026-04-26 20:48 | 52.21505 | 45.58305 | 15292 ft | 373 kts | 158° |
| 2026-04-26 20:48 | 52.19230 | 45.60211 | 15070 ft | 362 kts | 158° |
| 2026-04-26 20:48 | 52.17028 | 45.62058 | 14845 ft | 350 kts | 158° |
| 2026-04-26 20:48 | 52.14893 | 45.63834 | 14658 ft | 339 kts | 158° |
| 2026-04-26 20:49 | 52.12824 | 45.65550 | 14468 ft | 329 kts | 158° |
| 2026-04-26 20:49 | 52.10815 | 45.67217 | 14293 ft | 319 kts | 159° |
| 2026-04-26 20:49 | 52.08860 | 45.68837 | 14000 ft | 313 kts | 159° |
| 2026-04-26 20:49 | 52.06927 | 45.70434 | 13648 ft | 310 kts | 159° |
| 2026-04-26 20:50 | 52.05015 | 45.72013 | 13279 ft | 307 kts | 159° |
| 2026-04-26 20:50 | 52.03119 | 45.73581 | 12918 ft | 305 kts | 159° |
| 2026-04-26 20:50 | 52.01234 | 45.75137 | 12542 ft | 303 kts | 159° |
| 2026-04-26 20:50 | 51.99366 | 45.76678 | 12164 ft | 301 kts | 159° |
| 2026-04-26 20:51 | 51.97473 | 45.78037 | 11779 ft | 295 kts | 166° |
| 2026-04-26 20:51 | 51.95568 | 45.79089 | 11407 ft | 291 kts | 168° |
| 2026-04-26 20:51 | 51.93644 | 45.80099 | 11034 ft | 289 kts | 168° |
| 2026-04-26 20:51 | 51.91740 | 45.81097 | 10648 ft | 287 kts | 168° |
| 2026-04-26 20:52 | 51.89845 | 45.82096 | 10278 ft | 286 kts | 168° |
| 2026-04-26 20:52 | 51.87961 | 45.83091 | 9909 ft | 284 kts | 168° |
| 2026-04-26 20:52 | 51.86092 | 45.84080 | 9546 ft | 281 kts | 168° |
| 2026-04-26 20:52 | 51.84237 | 45.85059 | 9169 ft | 280 kts | 167° |
| 2026-04-26 20:53 | 51.82410 | 45.86230 | 8671 ft | 287 kts | 156° |
| 2026-04-26 20:53 | 51.80728 | 45.87981 | 8314 ft | 287 kts | 149° |
| 2026-04-26 20:53 | 51.79127 | 45.89825 | 8151 ft | 278 kts | 149° |
| 2026-04-26 20:53 | 51.77583 | 45.91601 | 8004 ft | 268 kts | 150° |
| 2026-04-26 20:54 | 51.76088 | 45.93308 | 7852 ft | 258 kts | 150° |
| 2026-04-26 20:54 | 51.74675 | 45.94915 | 7712 ft | 249 kts | 151° |
| 2026-04-26 20:54 | 51.73253 | 45.96523 | 7570 ft | 241 kts | 151° |
| 2026-04-26 20:54 | 51.71986 | 45.98243 | 7389 ft | 241 kts | 133° |
| 2026-04-26 20:55 | 51.71416 | 46.00766 | 7230 ft | 243 kts | 97° |
| 2026-04-26 20:55 | 51.71386 | 46.03446 | 7110 ft | 235 kts | 91° |
| 2026-04-26 20:55 | 51.71408 | 46.06057 | 6928 ft | 231 kts | 92° |
| 2026-04-26 20:55 | 51.71401 | 46.08642 | 6664 ft | 230 kts | 94° |
| 2026-04-26 20:56 | 51.71370 | 46.11214 | 6418 ft | 229 kts | 94° |
| 2026-04-26 20:56 | 51.71327 | 46.13773 | 6179 ft | 227 kts | 95° |
| 2026-04-26 20:56 | 51.71280 | 46.16317 | 5924 ft | 227 kts | 95° |
| 2026-04-26 20:56 | 51.71215 | 46.18847 | 5677 ft | 226 kts | 97° |
| 2026-04-26 20:57 | 51.71138 | 46.21373 | 5435 ft | 225 kts | 97° |
| 2026-04-26 20:57 | 51.71060 | 46.23880 | 5196 ft | 224 kts | 97° |
| 2026-04-26 20:57 | 51.70985 | 46.26391 | 4956 ft | 224 kts | 97° |
| 2026-04-26 20:57 | 51.70910 | 46.28890 | 4781 ft | 222 kts | 98° |
| 2026-04-26 20:58 | 51.70833 | 46.31383 | 4675 ft | 222 kts | 98° |
| 2026-04-26 20:58 | 51.70295 | 46.33111 | 5441 ft | 142 kts | 180° |
| 2026-04-26 20:58 | 51.69383 | 46.32841 | 5906 ft | 165 kts | 209° |
| 2026-04-26 20:58 | 51.68346 | 46.31885 | 6070 ft | 176 kts | 219° |
| 2026-04-26 20:59 | 51.67312 | 46.30770 | 5836 ft | 179 kts | 218° |
| 2026-04-26 20:59 | 51.66279 | 46.29677 | 5614 ft | 176 kts | 217° |
| 2026-04-26 20:59 | 51.65255 | 46.28611 | 5389 ft | 174 kts | 217° |
| 2026-04-26 20:59 | 51.64236 | 46.27563 | 5190 ft | 173 kts | 217° |
| 2026-04-26 21:00 | 51.63226 | 46.26529 | 4976 ft | 171 kts | 217° |
| 2026-04-26 21:00 | 51.62220 | 46.25504 | 4775 ft | 171 kts | 216° |
| 2026-04-26 21:00 | 51.61236 | 46.24450 | 4566 ft | 169 kts | 221° |
| 2026-04-26 21:00 | 51.60525 | 46.22977 | 4332 ft | 167 kts | 239° |
| 2026-04-26 21:01 | 51.59967 | 46.21371 | 4149 ft | 167 kts | 242° |
| 2026-04-26 21:01 | 51.59474 | 46.19693 | 3943 ft | 165 kts | 245° |
| 2026-04-26 21:01 | 51.59050 | 46.17981 | 3744 ft | 165 kts | 247° |
| 2026-04-26 21:01 | 51.58678 | 46.16238 | 3542 ft | 165 kts | 250° |
| 2026-04-26 21:02 | 51.58346 | 46.14457 | 3356 ft | 167 kts | 251° |
| 2026-04-26 21:02 | 51.58058 | 46.12648 | 3153 ft | 167 kts | 253° |
| 2026-04-26 21:02 | 51.57816 | 46.10820 | 2937 ft | 167 kts | 255° |
| 2026-04-26 21:02 | 51.57623 | 46.08976 | 2751 ft | 168 kts | 258° |
| 2026-04-26 21:03 | 51.57471 | 46.07089 | 2557 ft | 172 kts | 260° |
| 2026-04-26 21:03 | 51.57357 | 46.05176 | 2361 ft | 171 kts | 261° |
| 2026-04-26 21:03 | 51.57275 | 46.03301 | 2193 ft | 164 kts | 263° |
| 2026-04-26 21:03 | 51.57203 | 46.01541 | 2092 ft | 152 kts | 263° |
| 2026-04-26 21:04 | 51.57137 | 45.99869 | 1971 ft | 150 kts | 263° |
| 2026-04-26 21:04 | 51.57070 | 45.98185 | 1860 ft | 151 kts | 262° |
| 2026-04-26 21:04 | 51.57004 | 45.96499 | 1749 ft | 152 kts | 262° |
| 2026-04-26 21:04 | 51.57104 | 45.94910 | 2006 ft | 131 kts | 308° |
| 2026-04-26 21:05 | 51.57912 | 45.94402 | 2429 ft | 142 kts | 1° |
| 2026-04-26 21:05 | 51.58867 | 45.94911 | 2368 ft | 157 kts | 39° |
| 2026-04-26 21:05 | 51.59547 | 45.96289 | 2240 ft | 160 kts | 68° |
| 2026-04-26 21:05 | 51.59766 | 45.98007 | 1868 ft | 157 kts | 105° |
| 2026-04-26 21:06 | 51.59301 | 45.99514 | 1449 ft | 154 kts | 134° |
| 2026-04-26 21:06 | 51.58493 | 46.00694 | 998 ft | 159 kts | 141° |
| 2026-04-26 21:06 | 51.57791 | 46.02047 | 681 ft | 154 kts | 129° |
| 2026-04-26 21:06 | 51.57169 | 46.03250 | 568 ft | 138 kts | 131° |
| 2026-04-26 21:07 | 51.56645 | 46.04367 | 478 ft | 92 kts | 129° |
| 2026-04-26 21:07 | 51.56461 | 46.04744 | 488 ft | 0 kts | 128° |